Time;durP1;ratioP1;P1;durP2;ratioP2;P2;SDS_P1;SDS_P2;PMS_P1;PMS_P2;Temp;Humidity;BMP_temperature;BMP_pressure;BME280_temperature;BME280_humidity;BME280_pressure;Samples;Min_cycle;Max_cycle;Signal;HPM_P1;HPM_P2
2021/06/17 00:01:55;;;;;;;;;;;;;;;27.39;49.72;100557.31;5078479;28;756;-34
2021/06/17 00:04:20;;;;;;;;;;;;;;;27.41;49.91;100559.00;5078421;28;845;-36
2021/06/17 00:06:45;;;;;;;;;;;;;;;27.43;49.58;100567.72;5078001;28;1898;-31
2021/06/17 00:09:11;;;;;;;;;;;;;;;27.41;49.86;100573.31;5078160;28;1076;-36
2021/06/17 00:11:36;;;;;;;;;;;;;;;27.34;49.78;100567.84;5078323;28;819;-36
2021/06/17 00:14:01;;;;;;;;;;;;;;;27.34;49.65;100562.44;5077767;28;747;-35
2021/06/17 00:16:30;;;;;;;;;;;;;;;27.37;50.01;100564.78;5077895;28;943;-33
2021/06/17 00:18:55;;;;;;;;;;;;;;;27.32;50.28;100552.88;5078015;28;764;-33
2021/06/17 00:21:20;;;;;;;;;;;;;;;27.31;50.03;100560.13;5077832;28;803;-34
2021/06/17 00:23:45;;;;;;;;;;;;;;;27.34;50.28;100567.03;5077803;28;783;-34
2021/06/17 00:26:11;;;;;;;;;;;;;;;27.31;50.10;100562.00;5077975;28;1971;-35
2021/06/17 00:28:36;;;;;;;;;;;;;;;27.34;50.07;100567.03;5077643;28;728;-33
2021/06/17 00:31:01;;;;;;;;;;;;;;;27.40;50.08;100563.56;5076518;28;1067;-34
2021/06/17 00:33:28;;;;;;;;;;;;;;;27.36;50.11;100559.59;5077679;28;971;-33
2021/06/17 00:35:53;;;;;;;;;;;;;;;26.82;49.04;100556.13;5077301;28;816;-33
2021/06/17 00:38:18;;;;;;;;;;;;;;;26.19;48.48;100549.97;5077816;28;736;-35
2021/06/17 00:40:44;;;;;;;;;;;;;;;25.87;48.84;100557.28;5077921;28;783;-38
2021/06/17 00:43:09;;;;;;;;;;;;;;;25.71;48.56;100550.97;5076929;28;839;-34
2021/06/17 00:45:36;;;;;;;;;;;;;;;26.45;47.58;100548.75;5076844;28;1887;-32
2021/06/17 00:48:01;;;;;;;;;;;;;;;26.74;47.31;100548.97;5077515;28;836;-34
2021/06/17 00:50:28;;;;;;;;;;;;;;;26.82;47.33;100556.13;5076967;28;795;-33
2021/06/17 00:52:53;;;;;;;;;;;;;;;26.86;47.50;100558.28;5077360;28;783;-33
2021/06/17 00:55:18;;;;;;;;;;;;;;;26.86;47.25;100554.75;5109708;28;1476;-34
2021/06/17 00:57:44;;;;;;;;;;;;;;;26.93;47.00;100552.13;5076675;28;800;-34
2021/06/17 01:00:10;;;;;;;;;;;;;;;26.90;47.13;100556.03;5101702;28;965;-33
2021/06/17 01:02:35;;;;;;;;;;;;;;;26.89;47.40;100557.91;5057446;28;748;-35
2021/06/17 01:05:00;;;;;;;;;;;;;;;26.97;47.24;100554.28;5056728;28;1902;-32
2021/06/17 01:07:30;;;;;;;;;;;;;;;27.01;47.10;100560.13;5057604;28;776;-33
2021/06/17 01:10:04;;;;;;;;;;;;;;;26.97;47.48;100556.97;5065031;28;1092;-32
2021/06/17 01:12:35;;;;;;;;;;;;;;;26.96;47.44;100557.16;5076572;28;843;-33
2021/06/17 01:15:10;;;;;;;;;;;;;;;26.95;47.49;100556.31;5076600;28;951;-34
2021/06/17 01:17:37;;;;;;;;;;;;;;;26.90;47.41;100556.03;5109651;28;826;-33
2021/06/17 01:20:09;;;;;;;;;;;;;;;26.95;47.48;100558.19;5109529;28;767;-34
2021/06/17 01:22:54;;;;;;;;;;;;;;;26.92;47.69;100556.69;5076968;28;748;-34
2021/06/17 01:25:26;;;;;;;;;;;;;;;26.92;47.62;100559.41;5079758;28;1898;-33
2021/06/17 01:28:05;;;;;;;;;;;;;;;26.91;47.70;100563.09;5076395;28;839;-34
2021/06/17 01:30:30;;;;;;;;;;;;;;;26.89;47.87;100560.59;5076436;28;1025;-36
2021/06/17 01:33:00;;;;;;;;;;;;;;;26.97;47.83;100561.53;5076711;28;1064;-33
2021/06/17 01:35:26;;;;;;;;;;;;;;;27.03;47.77;100560.81;5074693;28;804;-33
2021/06/17 01:37:52;;;;;;;;;;;;;;;27.07;47.72;100555.88;5075384;28;800;-32
2021/06/17 01:40:17;;;;;;;;;;;;;;;27.07;47.88;100556.72;5076808;28;787;-30
2021/06/17 01:42:42;;;;;;;;;;;;;;;27.08;47.97;100555.69;5076303;28;833;-31
2021/06/17 01:45:08;;;;;;;;;;;;;;;27.06;47.97;100548.81;5074652;28;1980;-33
2021/06/17 01:47:33;;;;;;;;;;;;;;;26.98;48.17;100545.16;5076452;28;902;-32
2021/06/17 01:49:59;;;;;;;;;;;;;;;26.98;48.03;100547.00;5076263;28;839;-29
2021/06/17 01:52:25;;;;;;;;;;;;;;;27.00;47.87;100544.97;5109160;28;815;-32
2021/06/17 01:54:50;;;;;;;;;;;;;;;27.02;48.00;100549.19;5109526;28;791;-34
2021/06/17 01:57:16;;;;;;;;;;;;;;;26.95;47.91;100553.63;5108880;28;823;-33
2021/06/17 01:59:42;;;;;;;;;;;;;;;26.95;48.34;100558.19;5104027;28;1487;-35
2021/06/17 02:02:07;;;;;;;;;;;;;;;26.97;48.20;100564.22;5088678;28;842;-32
2021/06/17 02:04:34;;;;;;;;;;;;;;;26.93;48.26;100563.75;5088007;28;1313;-31
2021/06/17 02:07:01;;;;;;;;;;;;;;;26.94;48.06;100557.34;5056550;28;1910;-33
2021/06/17 02:09:27;;;;;;;;;;;;;;;26.98;48.26;100565.91;5093430;28;1087;-30
2021/06/17 02:11:52;;;;;;;;;;;;;;;27.01;48.26;100569.09;5074471;28;828;-30
2021/06/17 02:14:17;;;;;;;;;;;;;;;27.01;47.89;100577.19;5075962;28;955;-30
2021/06/17 02:16:42;;;;;;;;;;;;;;;27.05;47.89;100579.53;5076485;28;776;-34
2021/06/17 02:19:08;;;;;;;;;;;;;;;27.08;47.78;100590.78;5076135;28;803;-29
2021/06/17 02:21:33;;;;;;;;;;;;;;;27.07;47.62;100589.13;5076165;28;910;-33
2021/06/17 02:24:01;;;;;;;;;;;;;;;27.07;48.08;100597.22;5108940;28;794;-33
2021/06/17 02:26:26;;;;;;;;;;;;;;;27.06;47.72;100598.22;5075850;28;1906;-30
2021/06/17 02:28:51;;;;;;;;;;;;;;;27.04;47.92;100608.41;5076643;28;787;-29
2021/06/17 02:31:23;;;;;;;;;;;;;;;27.05;47.72;100623.56;5090556;28;942;-33
2021/06/17 02:33:49;;;;;;;;;;;;;;;26.99;48.02;100619.69;5055879;28;752;-34
2021/06/17 02:36:14;;;;;;;;;;;;;;;27.12;47.82;100623.66;5056123;28;784;-30
2021/06/17 02:38:40;;;;;;;;;;;;;;;27.05;48.04;100626.25;5056033;28;772;-32
2021/06/17 02:41:07;;;;;;;;;;;;;;;27.06;48.00;100624.41;5055684;28;681;-31
2021/06/17 02:43:34;;;;;;;;;;;;;;;27.11;47.93;100632.78;5056220;28;803;-31
2021/06/17 02:45:59;;;;;;;;;;;;;;;27.08;48.05;100636.69;5070295;28;1992;-33
2021/06/17 02:48:24;;;;;;;;;;;;;;;27.11;47.77;100643.59;5075752;28;756;-33
2021/06/17 02:50:50;;;;;;;;;;;;;;;27.10;47.96;100644.59;5076205;28;847;-32
2021/06/17 02:53:15;;;;;;;;;;;;;;;27.14;47.45;100651.31;5077175;28;736;-33
2021/06/17 02:55:40;;;;;;;;;;;;;;;27.14;47.70;100659.41;5079010;28;969;-33
2021/06/17 02:58:21;;;;;;;;;;;;;;;27.16;47.74;100659.22;5079688;28;729;-33
2021/06/17 03:00:50;;;;;;;;;;;;;;;27.04;48.01;100664.25;5079236;28;1010;-33
2021/06/17 03:03:16;;;;;;;;;;;;;;;27.08;47.85;100660.13;5079942;28;756;-29
2021/06/17 03:05:46;;;;;;;;;;;;;;;26.96;48.22;100665.97;5112023;28;1898;-33
2021/06/17 03:08:38;;;;;;;;;;;;;;;26.97;48.47;100664.13;5111678;28;794;-32
2021/06/17 03:11:06;;;;;;;;;;;;;;;27.00;48.20;100658.34;5079871;28;1626;-29
2021/06/17 03:13:32;;;;;;;;;;;;;;;27.12;47.96;100661.47;5079675;28;803;-29
2021/06/17 03:15:57;;;;;;;;;;;;;;;26.53;46.72;100680.00;5077666;28;942;-37
2021/06/17 03:18:22;;;;;;;;;;;;;;;25.84;47.23;100670.81;5078983;28;863;-33
2021/06/17 03:20:48;;;;;;;;;;;;;;;25.43;47.89;100672.63;5111893;28;775;-37
2021/06/17 03:23:14;;;;;;;;;;;;;;;25.29;47.77;100685.78;5111515;28;1287;-36
2021/06/17 03:25:40;;;;;;;;;;;;;;;24.73;49.15;100689.22;5078408;28;1894;-37
2021/06/17 03:28:05;;;;;;;;;;;;;;;24.52;50.05;100695.94;5112039;28;791;-37
2021/06/17 03:30:31;;;;;;;;;;;;;;;24.25;50.49;100684.47;5078714;28;955;-37
2021/06/17 03:32:57;;;;;;;;;;;;;;;24.16;51.20;100675.53;5111493;28;835;-36
2021/06/17 03:35:22;;;;;;;;;;;;;;;23.48;53.34;100683.50;5111390;28;759;-33
2021/06/17 03:37:51;;;;;;;;;;;;;;;23.50;53.77;100683.34;5111568;28;803;-39
2021/06/17 03:40:17;;;;;;;;;;;;;;;23.00;55.10;100683.84;5110741;28;835;-38
2021/06/17 03:42:43;;;;;;;;;;;;;;;23.16;54.46;100701.03;5078795;28;792;-35
2021/06/17 03:45:08;;;;;;;;;;;;;;;23.06;54.96;100695.78;5078189;28;1979;-39
2021/06/17 03:47:34;;;;;;;;;;;;;;;22.58;56.38;100688.00;5110052;28;1007;-39
2021/06/17 03:49:59;;;;;;;;;;;;;;;23.39;53.98;100698.66;5078581;28;855;-38
2021/06/17 03:52:24;;;;;;;;;;;;;;;23.99;52.25;100685.38;5078735;28;747;-39
2021/06/17 03:54:50;;;;;;;;;;;;;;;24.42;51.10;100695.25;5078415;28;890;-39
2021/06/17 03:57:15;;;;;;;;;;;;;;;24.56;50.67;100707.19;5078219;28;835;-42
2021/06/17 03:59:41;;;;;;;;;;;;;;;24.84;49.59;100704.16;5076867;28;1303;-42
2021/06/17 04:02:06;;;;;;;;;;;;;;;25.04;48.99;100703.88;5111293;28;737;-40
2021/06/17 04:04:32;;;;;;;;;;;;;;;25.19;48.68;100702.13;5078257;28;836;-39
2021/06/17 04:06:57;;;;;;;;;;;;;;;25.24;48.43;100712.38;5078442;28;1898;-39
2021/06/17 04:09:27;;;;;;;;;;;;;;;25.40;48.10;100705.28;5110579;28;1130;-40
2021/06/17 04:11:56;;;;;;;;;;;;;;;25.35;48.25;100708.50;5078252;28;823;-36
2021/06/17 04:14:21;;;;;;;;;;;;;;;25.30;48.49;100706.34;5076717;28;871;-41
2021/06/17 04:16:47;;;;;;;;;;;;;;;25.27;49.10;100706.69;5110599;28;763;-38
2021/06/17 04:19:12;;;;;;;;;;;;;;;25.41;48.46;100704.28;5110556;28;737;-42
2021/06/17 04:21:38;;;;;;;;;;;;;;;25.49;48.37;100714.19;5110625;28;799;-43
2021/06/17 04:24:05;;;;;;;;;;;;;;;25.55;47.89;100708.13;5110400;28;764;-42
2021/06/17 04:26:31;;;;;;;;;;;;;;;25.59;47.67;100708.63;5109807;28;1909;-40
2021/06/17 04:28:56;;;;;;;;;;;;;;;25.61;47.89;100712.81;5110738;28;783;-41
2021/06/17 04:31:22;;;;;;;;;;;;;;;25.72;47.05;100710.78;5091230;28;997;-41
2021/06/17 04:33:47;;;;;;;;;;;;;;;25.70;47.52;100715.50;5057870;28;827;-35
2021/06/17 04:36:12;;;;;;;;;;;;;;;25.75;47.08;100713.13;5058080;28;811;-40
2021/06/17 04:38:38;;;;;;;;;;;;;;;25.73;47.00;100717.84;5057420;28;763;-41
2021/06/17 04:41:04;;;;;;;;;;;;;;;25.82;46.82;100714.13;5057804;28;732;-38
2021/06/17 04:43:31;;;;;;;;;;;;;;;25.85;47.22;100704.81;5089715;28;1134;-38
2021/06/17 04:45:56;;;;;;;;;;;;;;;25.93;46.95;100696.69;5070869;28;1914;-37
2021/06/17 04:48:22;;;;;;;;;;;;;;;25.96;46.88;100690.13;5108776;28;1122;-40
2021/06/17 04:50:47;;;;;;;;;;;;;;;25.94;46.86;100679.53;5077468;28;752;-39
2021/06/17 04:53:13;;;;;;;;;;;;;;;25.95;46.70;100673.13;5076982;28;784;-40
2021/06/17 04:55:43;;;;;;;;;;;;;;;26.03;46.59;100673.06;5077768;28;740;-39
2021/06/17 04:58:08;;;;;;;;;;;;;;;26.07;46.20;100678.09;5077149;28;740;-38
2021/06/17 05:00:34;;;;;;;;;;;;;;;26.08;46.29;100677.91;5076305;28;1001;-39
2021/06/17 05:02:59;;;;;;;;;;;;;;;26.04;46.34;100679.31;5076957;28;819;-39
2021/06/17 05:05:24;;;;;;;;;;;;;;;26.13;46.08;100677.38;5077116;28;1975;-39
2021/06/17 05:10:52;;;;;;;;;;;;;;;26.06;46.40;100673.75;5076783;28;1167;-39
2021/06/17 05:13:22;;;;;;;;;;;;;;;26.09;46.53;100684.97;5077021;28;796;-40
2021/06/17 05:15:47;;;;;;;;;;;;;;;26.16;46.34;100699.44;5076094;28;954;-39
2021/06/17 05:18:13;;;;;;;;;;;;;;;26.16;46.38;100698.59;5076766;28;853;-38
2021/06/17 05:20:38;;;;;;;;;;;;;;;26.17;46.49;100697.59;5076735;28;747;-37
2021/06/17 05:23:03;;;;;;;;;;;;;;;26.15;46.49;100696.94;5076576;28;756;-39
2021/06/17 05:25:29;;;;;;;;;;;;;;;26.14;46.62;100697.94;5076939;28;1972;-39
2021/06/17 05:27:54;;;;;;;;;;;;;;;26.20;46.41;100691.84;5076862;28;855;-39
2021/06/17 05:30:19;;;;;;;;;;;;;;;26.20;46.47;100699.09;5076140;28;938;-41
2021/06/17 05:32:45;;;;;;;;;;;;;;;26.23;46.03;100694.19;5077235;28;709;-36
2021/06/17 05:35:10;;;;;;;;;;;;;;;26.28;46.36;100697.19;5076687;28;740;-41
2021/06/17 05:37:36;;;;;;;;;;;;;;;26.23;45.84;100696.88;5076571;28;713;-39
2021/06/17 05:40:01;;;;;;;;;;;;;;;26.27;45.70;100702.75;5076618;28;855;-40
2021/06/17 05:42:26;;;;;;;;;;;;;;;26.33;45.71;100707.47;5076612;28;811;-40
2021/06/17 05:44:53;;;;;;;;;;;;;;;26.29;45.89;100698.03;5076138;28;1009;-39
2021/06/17 05:47:18;;;;;;;;;;;;;;;26.29;45.64;100696.16;5076412;28;1980;-40
2021/06/17 05:49:44;;;;;;;;;;;;;;;26.33;45.73;100688.59;5076298;28;847;-41
2021/06/17 05:52:09;;;;;;;;;;;;;;;26.27;45.91;100683.88;5076754;28;827;-39
2021/06/17 05:54:34;;;;;;;;;;;;;;;26.31;45.43;100698.66;5076093;28;875;-41
2021/06/17 05:57:00;;;;;;;;;;;;;;;26.33;45.71;100699.38;5076572;28;783;-39
2021/06/17 05:59:25;;;;;;;;;;;;;;;26.39;45.33;100698.66;5075887;28;958;-41
2021/06/17 06:01:50;;;;;;;;;;;;;;;26.43;45.89;100707.22;5076099;28;879;-41
2021/06/17 06:04:16;;;;;;;;;;;;;;;26.43;45.80;100700.97;5076392;28;831;-39
2021/06/17 06:06:41;;;;;;;;;;;;;;;26.42;45.62;100700.16;5076526;28;1949;-41
2021/06/17 06:09:06;;;;;;;;;;;;;;;26.44;45.39;100698.13;5075625;28;1080;-39
2021/06/17 06:11:31;;;;;;;;;;;;;;;26.49;45.37;100694.88;5076296;28;826;-37
2021/06/17 06:13:57;;;;;;;;;;;;;;;26.48;45.23;100695.88;5076751;28;987;-38
2021/06/17 06:16:22;;;;;;;;;;;;;;;26.45;45.07;100694.41;5075702;28;951;-36
2021/06/17 06:18:47;;;;;;;;;;;;;;;26.53;45.56;100694.34;5076205;28;767;-36
2021/06/17 06:21:13;;;;;;;;;;;;;;;26.54;45.37;100692.50;5076487;28;771;-35
2021/06/17 06:23:38;;;;;;;;;;;;;;;26.49;45.30;100694.88;5075867;28;843;-37
2021/06/17 06:26:03;;;;;;;;;;;;;;;26.53;45.33;100706.97;5076332;28;1968;-40
2021/06/17 06:28:30;;;;;;;;;;;;;;;26.59;44.88;100719.75;5077311;28;831;-34
2021/06/17 06:30:56;;;;;;;;;;;;;;;26.61;44.91;100709.63;5079334;28;927;-36
2021/06/17 06:33:21;;;;;;;;;;;;;;;26.64;44.87;100716.53;5080125;28;839;-34
2021/06/17 06:35:47;;;;;;;;;;;;;;;26.58;44.91;100722.63;5079950;28;752;-37
2021/06/17 06:38:12;;;;;;;;;;;;;;;26.57;44.71;100721.81;5079582;28;799;-35
2021/06/17 06:40:37;;;;;;;;;;;;;;;26.51;44.99;100719.81;5079764;28;756;-36
2021/06/17 06:43:03;;;;;;;;;;;;;;;26.55;44.88;100717.59;5079794;28;816;-37
2021/06/17 06:45:29;;;;;;;;;;;;;;;26.48;45.49;100723.72;5078915;28;1910;-41
2021/06/17 06:47:54;;;;;;;;;;;;;;;26.55;45.31;100721.13;5079940;28;828;-42
2021/06/17 06:50:20;;;;;;;;;;;;;;;26.68;44.87;100722.38;5079274;28;795;-38
2021/06/17 06:52:45;;;;;;;;;;;;;;;26.65;44.71;100732.53;5078984;28;831;-37
2021/06/17 06:55:11;;;;;;;;;;;;;;;26.61;45.12;100730.38;5079512;28;1237;-37
2021/06/17 06:57:37;;;;;;;;;;;;;;;26.61;44.82;100736.59;5078294;28;757;-35
2021/06/17 07:00:06;;;;;;;;;;;;;;;26.68;44.90;100733.16;5078412;28;997;-39
2021/06/17 07:02:33;;;;;;;;;;;;;;;26.71;44.88;100739.06;5079569;28;827;-38
2021/06/17 07:04:59;;;;;;;;;;;;;;;26.66;44.95;100738.75;5079330;28;834;-37
2021/06/17 07:07:24;;;;;;;;;;;;;;;26.74;44.19;100735.16;5078853;28;1961;-36
2021/06/17 07:09:50;;;;;;;;;;;;;;;26.72;44.40;100738.06;5079174;28;1076;-36
2021/06/17 07:12:15;;;;;;;;;;;;;;;26.71;44.74;100735.53;5079167;28;705;-41
2021/06/17 07:14:48;;;;;;;;;;;;;;;26.75;44.46;100734.13;5078597;28;990;-36
2021/06/17 07:17:16;;;;;;;;;;;;;;;26.74;44.69;100735.97;5079332;28;804;-37
2021/06/17 07:19:41;;;;;;;;;;;;;;;26.76;44.30;100719.59;5078709;28;777;-37
2021/06/17 07:22:07;;;;;;;;;;;;;;;26.82;44.48;100718.91;5078871;28;744;-37
2021/06/17 07:24:32;;;;;;;;;;;;;;;26.81;44.39;100727.19;5079090;28;739;-38
2021/06/17 07:26:57;;;;;;;;;;;;;;;26.90;44.30;100716.13;5111387;28;1910;-38
2021/06/17 07:29:23;;;;;;;;;;;;;;;26.86;44.30;100727.50;5078077;28;1000;-37
2021/06/17 07:31:48;;;;;;;;;;;;;;;26.84;44.03;100716.84;5078647;28;851;-37
2021/06/17 07:34:13;;;;;;;;;;;;;;;26.87;44.61;100724.59;5078866;28;899;-37
2021/06/17 07:36:39;;;;;;;;;;;;;;;26.83;44.52;100733.22;5078717;28;755;-38
2021/06/17 07:39:05;;;;;;;;;;;;;;;26.92;44.43;100742.94;5078332;28;911;-38
2021/06/17 07:41:31;;;;;;;;;;;;;;;26.93;44.28;100727.56;5078779;28;751;-37
2021/06/17 07:43:57;;;;;;;;;;;;;;;26.94;44.58;100731.97;5078502;28;864;-38
2021/06/17 07:46:22;;;;;;;;;;;;;;;26.88;44.45;100731.66;5077651;28;1910;-39
2021/06/17 07:48:49;;;;;;;;;;;;;;;26.89;44.48;100727.13;5078660;28;879;-39
2021/06/17 07:51:14;;;;;;;;;;;;;;;26.73;44.52;100738.88;5078295;28;827;-37
2021/06/17 07:53:39;;;;;;;;;;;;;;;26.83;44.33;100738.63;5078478;28;831;-43
2021/06/17 07:56:05;;;;;;;;;;;;;;;26.87;44.02;100718.34;5078672;28;874;-37
2021/06/17 07:58:30;;;;;;;;;;;;;;;26.87;43.75;100735.41;5078135;28;740;-37
2021/06/17 08:00:55;;;;;;;;;;;;;;;26.84;43.64;100743.84;5077772;28;950;-36
2021/06/17 08:03:21;;;;;;;;;;;;;;;26.81;44.08;100735.28;5078518;28;787;-37
2021/06/17 08:05:46;;;;;;;;;;;;;;;26.84;43.98;100748.41;5078033;28;1906;-36
2021/06/17 08:08:15;;;;;;;;;;;;;;;26.84;44.10;100754.63;5077717;28;839;-37
2021/06/17 08:10:40;;;;;;;;;;;;;;;26.81;44.39;100751.47;5077825;28;1131;-37
2021/06/17 08:13:06;;;;;;;;;;;;;;;26.73;44.28;100782.03;5077924;28;748;-34
2021/06/17 08:15:31;;;;;;;;;;;;;;;26.65;44.35;100756.81;5077830;28;1002;-37
2021/06/17 08:17:57;;;;;;;;;;;;;;;26.75;44.26;100759.28;5078087;28;767;-34
2021/06/17 08:20:22;;;;;;;;;;;;;;;26.81;44.13;100764.97;5077989;28;850;-36
2021/06/17 08:22:47;;;;;;;;;;;;;;;26.88;44.15;100769.47;5078001;28;846;-35
2021/06/17 08:25:13;;;;;;;;;;;;;;;26.91;44.35;100757.44;5077984;28;1901;-38
2021/06/17 08:27:38;;;;;;;;;;;;;;;26.89;44.43;100754.94;5077883;28;744;-37
2021/06/17 08:30:04;;;;;;;;;;;;;;;26.96;44.23;100755.03;5076899;28;975;-35
2021/06/17 08:32:29;;;;;;;;;;;;;;;26.96;44.64;100744.25;5077990;28;771;-36
2021/06/17 08:34:54;;;;;;;;;;;;;;;24.50;45.55;100758.94;5077716;28;740;-37
2021/06/17 08:37:20;;;;;;;;;;;;;;;23.02;45.46;100743.56;5077060;28;1499;-36
2021/06/17 08:39:45;;;;;;;;;;;;;;;22.86;49.47;100752.31;5077383;28;833;-37
2021/06/17 08:42:13;;;;;;;;;;;;;;;22.70;51.15;100753.00;5077465;28;835;-37
2021/06/17 08:44:38;;;;;;;;;;;;;;;22.62;52.02;100751.09;5108533;28;1218;-37
2021/06/17 08:47:04;;;;;;;;;;;;;;;23.11;51.12;100755.19;5077178;28;1971;-40
2021/06/17 08:49:29;;;;;;;;;;;;;;;23.32;50.66;100756.69;5077039;28;780;-36
2021/06/17 08:51:58;;;;;;;;;;;;;;;20.55;59.02;100766.66;5076261;28;779;-41
2021/06/17 08:54:24;;;;;;;;;;;;;;;19.93;62.25;100757.75;5077479;28;776;-38
2021/06/17 08:56:50;;;;;;;;;;;;;;;19.70;63.61;100747.22;5077142;28;780;-35
2021/06/17 08:59:16;;;;;;;;;;;;;;;20.19;66.55;100756.44;5076813;28;1053;-39
2021/06/17 09:01:41;;;;;;;;;;;;;;;23.30;54.33;100756.00;5076936;28;919;-36
2021/06/17 09:04:25;;;;;;;;;;;;;;;21.19;59.28;100752.88;5109581;28;850;-41
2021/06/17 09:07:06;;;;;;;;;;;;;;;20.04;63.84;100762.16;5077179;28;1963;-43
2021/06/17 09:09:32;;;;;;;;;;;;;;;19.54;65.16;100758.38;5076801;28;1103;-37
2021/06/17 09:11:57;;;;;;;;;;;;;;;19.35;66.00;100748.47;5077061;28;724;-36
2021/06/17 09:14:24;;;;;;;;;;;;;;;19.38;66.02;100748.19;5074890;28;950;-39
2021/06/17 09:17:04;;;;;;;;;;;;;;;19.35;65.98;100745.78;5076686;28;815;-37
2021/06/17 09:19:38;;;;;;;;;;;;;;;22.19;58.57;100734.69;5108892;28;827;-40
2021/06/17 09:22:04;;;;;;;;;;;;;;;20.51;60.82;100728.66;5076918;28;771;-38
2021/06/17 09:24:34;;;;;;;;;;;;;;;19.54;64.60;100736.19;5076842;28;787;-36
2021/06/17 09:27:18;;;;;;;;;;;;;;;19.25;65.50;100734.19;5076279;28;1971;-35
2021/06/17 09:29:44;;;;;;;;;;;;;;;19.15;65.87;100728.81;5076524;28;943;-36
2021/06/17 09:32:25;;;;;;;;;;;;;;;19.15;66.13;100737.63;5076629;28;819;-37
2021/06/17 09:34:50;;;;;;;;;;;;;;;18.97;66.71;100729.31;5076647;28;788;-36
2021/06/17 09:37:28;;;;;;;;;;;;;;;21.71;59.61;100727.56;5076897;28;816;-33
2021/06/17 09:39:54;;;;;;;;;;;;;;;20.28;61.45;100718.25;5076226;28;817;-36
2021/06/17 09:42:20;;;;;;;;;;;;;;;19.30;64.91;100734.66;5108911;28;835;-37
2021/06/17 09:44:45;;;;;;;;;;;;;;;18.97;66.16;100724.00;5076245;28;1516;-36
2021/06/17 09:47:14;;;;;;;;;;;;;;;19.03;66.12;100730.66;5076527;28;1968;-34
2021/06/17 09:49:39;;;;;;;;;;;;;;;18.97;66.78;100726.66;5076300;28;752;-37
2021/06/17 09:52:05;;;;;;;;;;;;;;;19.01;66.84;100727.25;5076527;28;812;-36
2021/06/17 09:54:32;;;;;;;;;;;;;;;20.87;63.19;100730.78;5076435;28;768;-32
2021/06/17 09:56:59;;;;;;;;;;;;;;;21.75;55.98;100734.28;5075978;28;906;-37
2021/06/17 09:59:35;;;;;;;;;;;;;;;19.44;64.39;100742.31;5076214;28;1033;-44
2021/06/17 10:02:01;;;;;;;;;;;;;;;19.00;66.23;100736.25;5093891;28;1251;-37
2021/06/17 10:04:27;;;;;;;;;;;;;;;19.11;65.89;100740.69;5080527;28;806;-33
2021/06/17 10:06:53;;;;;;;;;;;;;;;18.84;66.83;100741.03;5080531;28;1901;-36
2021/06/17 10:09:18;;;;;;;;;;;;;;;18.83;67.08;100738.50;5113074;28;1143;-36
2021/06/17 10:11:43;;;;;;;;;;;;;;;20.42;64.77;100727.66;5079984;28;827;-35
2021/06/17 10:14:09;;;;;;;;;;;;;;;22.59;55.97;100728.06;5080319;28;819;-38
2021/06/17 10:16:34;;;;;;;;;;;;;;;19.39;64.24;100725.88;5080214;28;950;-37
2021/06/17 10:19:00;;;;;;;;;;;;;;;18.92;66.13;100720.88;5080352;28;760;-36
2021/06/17 10:21:26;;;;;;;;;;;;;;;18.85;66.57;100731.22;5080144;28;749;-35
2021/06/17 10:23:52;;;;;;;;;;;;;;;18.87;66.23;100729.25;5080259;28;801;-35
2021/06/17 10:26:21;;;;;;;;;;;;;;;18.75;67.45;100731.13;5112865;28;1964;-38
2021/06/17 10:28:55;;;;;;;;;;;;;;;19.69;67.89;100726.00;5112485;28;812;-34
2021/06/17 10:31:43;;;;;;;;;;;;;;;22.26;57.07;100727.72;5079794;28;950;-37
2021/06/17 10:34:24;;;;;;;;;;;;;;;19.28;64.89;100729.47;5079706;28;820;-34
2021/06/17 10:37:09;;;;;;;;;;;;;;;18.89;66.44;100734.47;5080038;28;819;-37
2021/06/17 10:39:50;;;;;;;;;;;;;;;18.77;67.06;100741.69;5080292;28;775;-38
2021/06/17 10:42:24;;;;;;;;;;;;;;;18.79;66.93;100734.38;5079104;28;811;-34
2021/06/17 10:44:59;;;;;;;;;;;;;;;18.80;67.16;100736.09;5079117;28;1076;-33
2021/06/17 10:47:40;;;;;;;;;;;;;;;21.26;60.54;100727.25;5079525;28;1918;-36
2021/06/17 10:50:17;;;;;;;;;;;;;;;19.91;61.80;100724.13;5079119;28;835;-35
2021/06/17 10:52:43;;;;;;;;;;;;;;;18.91;65.99;100720.03;5079660;28;772;-38
2021/06/17 10:55:09;;;;;;;;;;;;;;;18.65;67.13;100720.38;5079627;28;775;-37
2021/06/17 10:57:40;;;;;;;;;;;;;;;18.61;67.38;100718.94;5112181;28;1215;-39
2021/06/17 11:00:29;;;;;;;;;;;;;;;18.59;67.67;100732.41;5079052;28;1444;-34
2021/06/17 11:02:55;;;;;;;;;;;;;;;18.71;67.85;100735.03;5081251;28;1267;-35
2021/06/17 11:05:43;;;;;;;;;;;;;;;21.47;59.22;100728.06;5079260;28;1897;-34
2021/06/17 11:08:23;;;;;;;;;;;;;;;22.78;55.26;100736.97;5080650;28;1990;-35
2021/06/17 11:11:06;;;;;;;;;;;;;;;20.47;60.20;100743.28;5078760;28;1095;-38
2021/06/17 11:13:36;;;;;;;;;;;;;;;18.90;64.35;100734.31;5078838;28;878;-37
2021/06/17 11:16:01;;;;;;;;;;;;;;;18.44;65.92;100729.16;5079341;28;951;-35
2021/06/17 11:21:36;;;;;;;;;;;;;;;18.48;67.57;100729.78;5078590;28;1164;-36
2021/06/17 11:24:08;;;;;;;;;;;;;;;21.46;57.77;100729.03;5078974;28;866;-35
2021/06/17 11:26:33;;;;;;;;;;;;;;;22.69;53.65;100730.69;5078775;28;1906;-33
2021/06/17 11:28:58;;;;;;;;;;;;;;;23.30;51.73;100731.84;5079053;28;815;-35
2021/06/17 11:31:37;;;;;;;;;;;;;;;23.68;50.71;100739.63;5078658;28;983;-34
2021/06/17 11:34:02;;;;;;;;;;;;;;;23.94;49.94;100744.16;5078620;28;827;-37
2021/06/17 11:36:27;;;;;;;;;;;;;;;24.14;49.81;100755.44;5078866;28;802;-36
2021/06/17 11:38:53;;;;;;;;;;;;;;;24.31;49.63;100745.63;5078784;28;752;-36
2021/06/17 11:41:20;;;;;;;;;;;;;;;24.48;49.46;100742.97;5078511;28;829;-37
2021/06/17 11:43:55;;;;;;;;;;;;;;;24.69;49.19;100741.69;5078641;28;744;-37
2021/06/17 11:46:22;;;;;;;;;;;;;;;24.82;48.98;100742.00;5078158;28;1910;-38
2021/06/17 11:48:54;;;;;;;;;;;;;;;24.95;48.80;100727.25;5078369;28;809;-37
2021/06/17 11:51:20;;;;;;;;;;;;;;;25.08;48.70;100729.41;5078624;28;819;-36
2021/06/17 11:53:49;;;;;;;;;;;;;;;25.16;48.51;100732.09;5111248;28;1174;-37
2021/06/17 11:56:24;;;;;;;;;;;;;;;25.27;48.24;100714.78;5078317;28;768;-37
2021/06/17 11:58:50;;;;;;;;;;;;;;;25.36;48.17;100725.53;5078617;28;756;-33
2021/06/17 12:01:16;;;;;;;;;;;;;;;25.45;48.02;100729.88;5078472;28;1017;-36
2021/06/17 12:03:50;;;;;;;;;;;;;;;25.53;47.84;100719.06;5078057;28;799;-37
2021/06/17 12:06:16;;;;;;;;;;;;;;;25.65;47.29;100727.66;5078124;28;1898;-37
2021/06/17 12:08:41;;;;;;;;;;;;;;;25.77;47.33;100735.34;5078484;28;779;-38
2021/06/17 12:11:18;;;;;;;;;;;;;;;25.83;47.05;100736.50;5110375;28;1190;-38
2021/06/17 12:13:52;;;;;;;;;;;;;;;25.86;47.09;100728.09;5078178;28;788;-37
2021/06/17 12:16:18;;;;;;;;;;;;;;;25.96;46.84;100736.78;5077770;28;943;-38
2021/06/17 12:18:43;;;;;;;;;;;;;;;26.01;46.72;100726.31;5077442;28;824;-38
2021/06/17 12:21:10;;;;;;;;;;;;;;;26.10;46.77;100727.13;5078059;28;752;-37
2021/06/17 12:23:36;;;;;;;;;;;;;;;26.19;46.43;100724.38;5078119;28;858;-38
2021/06/17 12:26:02;;;;;;;;;;;;;;;26.28;46.04;100720.59;5076324;28;1961;-36
2021/06/17 12:28:28;;;;;;;;;;;;;;;26.36;45.77;100722.47;5077522;28;816;-37
2021/06/17 12:30:53;;;;;;;;;;;;;;;26.31;46.09;100724.81;5077537;28;1001;-37
2021/06/17 12:33:18;;;;;;;;;;;;;;;26.38;45.90;100732.03;5077563;28;823;-36
2021/06/17 12:35:44;;;;;;;;;;;;;;;26.49;45.78;100722.69;5077624;28;728;-37
2021/06/17 12:38:09;;;;;;;;;;;;;;;26.51;45.47;100727.91;5077755;28;736;-36
2021/06/17 12:40:55;;;;;;;;;;;;;;;26.61;45.29;100735.78;5077139;28;760;-39
2021/06/17 12:43:21;;;;;;;;;;;;;;;26.63;45.30;100739.97;5077354;28;1252;-34
2021/06/17 12:45:47;;;;;;;;;;;;;;;26.69;45.39;100737.56;5076756;28;1985;-36
2021/06/17 12:48:34;;;;;;;;;;;;;;;26.70;45.19;100744.63;5077120;28;951;-37
2021/06/17 12:54:06;;;;;;;;;;;;;;;26.83;44.78;100750.25;5077027;28;622;-38
2021/06/17 12:56:32;;;;;;;;;;;;;;;26.83;45.20;100750.25;5077018;28;744;-34
2021/06/17 12:59:00;;;;;;;;;;;;;;;26.89;44.81;100756.81;5109997;28;799;-36
2021/06/17 13:01:25;;;;;;;;;;;;;;;26.96;44.65;100760.44;5077014;28;1010;-36
2021/06/17 13:03:51;;;;;;;;;;;;;;;26.98;44.78;100774.59;5109587;28;1206;-34
2021/06/17 13:06:34;;;;;;;;;;;;;;;26.98;44.42;100785.41;5077183;28;1955;-38